sensor_id;sensor_type;location;lat;lon;timestamp;P1;durP1;ratioP1;P2;durP2;ratioP2
21488;SDS011;10906;45.194;5.684;2022-11-14T06:00:19;22.67;;;15.57;;
21488;SDS011;10906;45.194;5.684;2022-11-14T06:03:04;22.63;;;16.33;;
21488;SDS011;10906;45.194;5.684;2022-11-14T06:05:48;23.55;;;17.17;;
21488;SDS011;10906;45.194;5.684;2022-11-14T06:08:33;24.52;;;15.27;;
21488;SDS011;10906;45.194;5.684;2022-11-14T06:11:18;22.15;;;15.77;;
21488;SDS011;10906;45.194;5.684;2022-11-14T06:14:04;26.27;;;16.63;;
21488;SDS011;10906;45.194;5.684;2022-11-14T06:16:48;24.88;;;16.92;;
21488;SDS011;10906;45.194;5.684;2022-11-14T06:19:33;21.58;;;16.55;;
21488;SDS011;10906;45.194;5.684;2022-11-14T06:22:17;22.08;;;16.45;;
21488;SDS011;10906;45.194;5.684;2022-11-14T06:25:02;20.75;;;16.27;;
21488;SDS011;10906;45.194;5.684;2022-11-14T06:27:46;21.13;;;15.85;;
21488;SDS011;10906;45.194;5.684;2022-11-14T06:30:31;23.77;;;16.10;;
21488;SDS011;10906;45.194;5.684;2022-11-14T06:33:15;21.25;;;16.45;;
21488;SDS011;10906;45.194;5.684;2022-11-14T06:36:00;19.92;;;15.93;;
21488;SDS011;10906;45.194;5.684;2022-11-14T06:38:46;24.85;;;17.20;;
21488;SDS011;10906;45.194;5.684;2022-11-14T06:41:30;21.60;;;15.68;;
21488;SDS011;10906;45.194;5.684;2022-11-14T06:44:14;24.42;;;15.80;;
21488;SDS011;10906;45.194;5.684;2022-11-14T06:47:00;22.25;;;15.27;;
21488;SDS011;10906;45.194;5.684;2022-11-14T06:49:44;22.42;;;15.93;;
21488;SDS011;10906;45.194;5.684;2022-11-14T06:52:29;21.63;;;15.93;;
21488;SDS011;10906;45.194;5.684;2022-11-14T06:55:13;22.20;;;16.13;;
21488;SDS011;10906;45.194;5.684;2022-11-14T06:57:58;23.45;;;15.82;;
21488;SDS011;10906;45.194;5.684;2022-11-14T07:00:42;20.23;;;14.85;;
21488;SDS011;10906;45.194;5.684;2022-11-14T07:03:33;23.35;;;17.00;;
21488;SDS011;10906;45.194;5.684;2022-11-14T07:11:41;25.45;;;17.02;;
21488;SDS011;10906;45.194;5.684;2022-11-14T07:14:56;25.25;;;17.02;;
21488;SDS011;10906;45.194;5.684;2022-11-14T07:44:22;27.40;;;15.80;;
21488;SDS011;10906;45.194;5.684;2022-11-14T07:47:07;27.05;;;14.48;;
21488;SDS011;10906;45.194;5.684;2022-11-14T07:49:51;20.33;;;14.77;;
21488;SDS011;10906;45.194;5.684;2022-11-14T07:52:36;21.88;;;14.32;;
21488;SDS011;10906;45.194;5.684;2022-11-14T07:55:20;21.33;;;14.48;;
21488;SDS011;10906;45.194;5.684;2022-11-14T08:04:39;18.83;;;14.30;;
21488;SDS011;10906;45.194;5.684;2022-11-14T08:07:24;23.40;;;14.98;;
21488;SDS011;10906;45.194;5.684;2022-11-14T08:10:09;20.38;;;14.40;;
21488;SDS011;10906;45.194;5.684;2022-11-14T08:12:58;22.20;;;15.13;;
21488;SDS011;10906;45.194;5.684;2022-11-14T08:15:47;19.88;;;13.02;;
21488;SDS011;10906;45.194;5.684;2022-11-14T08:18:32;19.08;;;14.48;;
21488;SDS011;10906;45.194;5.684;2022-11-14T08:21:16;23.02;;;15.50;;
21488;SDS011;10906;45.194;5.684;2022-11-14T08:24:00;22.60;;;16.13;;
21488;SDS011;10906;45.194;5.684;2022-11-14T08:26:44;27.92;;;17.05;;
21488;SDS011;10906;45.194;5.684;2022-11-14T08:32:15;24.63;;;15.20;;
21488;SDS011;10906;45.194;5.684;2022-11-14T08:35:01;27.27;;;14.82;;
21488;SDS011;10906;45.194;5.684;2022-11-14T08:37:46;18.38;;;13.68;;
21488;SDS011;10906;45.194;5.684;2022-11-14T08:40:30;22.40;;;14.23;;
21488;SDS011;10906;45.194;5.684;2022-11-14T08:43:15;25.75;;;14.50;;
21488;SDS011;10906;45.194;5.684;2022-11-14T08:46:00;19.42;;;12.85;;
21488;SDS011;10906;45.194;5.684;2022-11-14T08:48:46;22.42;;;12.80;;
21488;SDS011;10906;45.194;5.684;2022-11-14T08:51:30;22.33;;;12.57;;
21488;SDS011;10906;45.194;5.684;2022-11-14T08:54:15;16.40;;;12.38;;
21488;SDS011;10906;45.194;5.684;2022-11-14T09:01:00;19.30;;;12.02;;
21488;SDS011;10906;45.194;5.684;2022-11-14T09:04:26;18.15;;;10.75;;
21488;SDS011;10906;45.194;5.684;2022-11-14T09:07:11;19.58;;;11.73;;
21488;SDS011;10906;45.194;5.684;2022-11-14T09:09:55;17.10;;;11.55;;
21488;SDS011;10906;45.194;5.684;2022-11-14T09:12:40;20.42;;;10.32;;
21488;SDS011;10906;45.194;5.684;2022-11-14T09:15:28;16.77;;;10.73;;
21488;SDS011;10906;45.194;5.684;2022-11-14T09:18:13;21.48;;;10.63;;
21488;SDS011;10906;45.194;5.684;2022-11-14T09:20:58;17.08;;;10.40;;
21488;SDS011;10906;45.194;5.684;2022-11-14T09:23:47;14.70;;;9.95;;
21488;SDS011;10906;45.194;5.684;2022-11-14T09:26:31;20.58;;;10.20;;
21488;SDS011;10906;45.194;5.684;2022-11-14T09:29:16;21.00;;;9.90;;
21488;SDS011;10906;45.194;5.684;2022-11-14T09:32:01;13.63;;;10.00;;
21488;SDS011;10906;45.194;5.684;2022-11-14T09:34:46;18.95;;;9.30;;
21488;SDS011;10906;45.194;5.684;2022-11-14T09:37:30;15.45;;;8.80;;
21488;SDS011;10906;45.194;5.684;2022-11-14T09:40:15;20.08;;;9.00;;
21488;SDS011;10906;45.194;5.684;2022-11-14T09:46:41;15.30;;;8.57;;
21488;SDS011;10906;45.194;5.684;2022-11-14T09:49:34;16.00;;;9.85;;
21488;SDS011;10906;45.194;5.684;2022-11-14T10:07:52;13.30;;;7.38;;
21488;SDS011;10906;45.194;5.684;2022-11-14T10:11:00;15.15;;;8.07;;
21488;SDS011;10906;45.194;5.684;2022-11-14T10:23:46;15.43;;;7.65;;
21488;SDS011;10906;45.194;5.684;2022-11-14T10:27:03;16.70;;;7.55;;
21488;SDS011;10906;45.194;5.684;2022-11-14T10:30:06;12.25;;;7.78;;
21488;SDS011;10906;45.194;5.684;2022-11-14T10:32:58;9.55;;;6.60;;
21488;SDS011;10906;45.194;5.684;2022-11-14T10:39:41;20.65;;;8.43;;
21488;SDS011;10906;45.194;5.684;2022-11-14T10:42:34;13.07;;;6.85;;
21488;SDS011;10906;45.194;5.684;2022-11-14T10:45:32;12.45;;;6.88;;
21488;SDS011;10906;45.194;5.684;2022-11-14T10:48:29;11.20;;;7.05;;
21488;SDS011;10906;45.194;5.684;2022-11-14T10:51:23;14.82;;;7.57;;
21488;SDS011;10906;45.194;5.684;2022-11-14T10:57:11;14.25;;;7.32;;
21488;SDS011;10906;45.194;5.684;2022-11-14T11:00:10;13.02;;;7.00;;
21488;SDS011;10906;45.194;5.684;2022-11-14T11:40:45;11.48;;;5.70;;
21488;SDS011;10906;45.194;5.684;2022-11-14T11:44:17;26.60;;;7.05;;
21488;SDS011;10906;45.194;5.684;2022-11-14T12:00:22;12.65;;;6.38;;
21488;SDS011;10906;45.194;5.684;2022-11-14T12:03:08;15.70;;;6.40;;
21488;SDS011;10906;45.194;5.684;2022-11-14T12:25:18;4.05;;;2.45;;
21488;SDS011;10906;45.194;5.684;2022-11-14T13:09:19;5.18;;;1.38;;
21488;SDS011;10906;45.194;5.684;2022-11-14T13:12:30;4.78;;;1.95;;
21488;SDS011;10906;45.194;5.684;2022-11-14T13:15:45;5.35;;;1.20;;
21488;SDS011;10906;45.194;5.684;2022-11-14T13:22:53;2.35;;;1.73;;
21488;SDS011;10906;45.194;5.684;2022-11-14T13:25:43;1.40;;;1.20;;
21488;SDS011;10906;45.194;5.684;2022-11-14T13:31:41;1.73;;;1.58;;
21488;SDS011;10906;45.194;5.684;2022-11-14T13:34:30;3.20;;;1.17;;
21488;SDS011;10906;45.194;5.684;2022-11-14T13:46:54;1.38;;;1.20;;
21488;SDS011;10906;45.194;5.684;2022-11-14T13:50:06;1.52;;;1.10;;
21488;SDS011;10906;45.194;5.684;2022-11-14T13:53:02;1.98;;;1.17;;
21488;SDS011;10906;45.194;5.684;2022-11-14T14:08:19;1.25;;;0.90;;
21488;SDS011;10906;45.194;5.684;2022-11-14T14:21:05;1.63;;;1.20;;
21488;SDS011;10906;45.194;5.684;2022-11-14T14:24:23;2.58;;;0.98;;
21488;SDS011;10906;45.194;5.684;2022-11-14T14:27:23;2.53;;;1.10;;
21488;SDS011;10906;45.194;5.684;2022-11-14T14:30:26;2.78;;;1.20;;
21488;SDS011;10906;45.194;5.684;2022-11-14T14:33:12;1.38;;;0.98;;
21488;SDS011;10906;45.194;5.684;2022-11-14T14:35:58;1.75;;;1.10;;
21488;SDS011;10906;45.194;5.684;2022-11-14T14:38:42;1.55;;;1.23;;
21488;SDS011;10906;45.194;5.684;2022-11-14T14:57:00;3.50;;;1.40;;
21488;SDS011;10906;45.194;5.684;2022-11-14T15:03:03;2.13;;;1.40;;
21488;SDS011;10906;45.194;5.684;2022-11-14T15:05:47;1.70;;;1.50;;
21488;SDS011;10906;45.194;5.684;2022-11-14T15:08:39;1.23;;;1.10;;
21488;SDS011;10906;45.194;5.684;2022-11-14T15:11:23;3.35;;;1.60;;
21488;SDS011;10906;45.194;5.684;2022-11-14T15:14:31;2.72;;;1.20;;
21488;SDS011;10906;45.194;5.684;2022-11-14T15:17:23;3.40;;;1.23;;
21488;SDS011;10906;45.194;5.684;2022-11-14T15:28:44;3.05;;;1.63;;
21488;SDS011;10906;45.194;5.684;2022-11-14T15:31:29;1.20;;;1.10;;
21488;SDS011;10906;45.194;5.684;2022-11-14T15:41:14;3.67;;;1.17;;
21488;SDS011;10906;45.194;5.684;2022-11-14T15:44:26;2.55;;;1.13;;
21488;SDS011;10906;45.194;5.684;2022-11-14T15:55:41;3.00;;;1.35;;
21488;SDS011;10906;45.194;5.684;2022-11-14T15:58:26;3.42;;;1.27;;
21488;SDS011;10906;45.194;5.684;2022-11-14T16:03:59;3.38;;;1.42;;
21488;SDS011;10906;45.194;5.684;2022-11-14T16:06:44;5.68;;;3.50;;
21488;SDS011;10906;45.194;5.684;2022-11-14T16:09:28;4.60;;;1.60;;
21488;SDS011;10906;45.194;5.684;2022-11-14T16:12:13;1.42;;;1.30;;
21488;SDS011;10906;45.194;5.684;2022-11-14T16:14:57;2.15;;;1.02;;
21488;SDS011;10906;45.194;5.684;2022-11-14T16:17:43;3.17;;;1.65;;
21488;SDS011;10906;45.194;5.684;2022-11-14T16:20:32;4.38;;;3.97;;
21488;SDS011;10906;45.194;5.684;2022-11-14T17:47:52;2.95;;;1.33;;
21488;SDS011;10906;45.194;5.684;2022-11-14T20:18:40;4.93;;;3.05;;
21488;SDS011;10906;45.194;5.684;2022-11-14T20:21:39;4.10;;;3.25;;
21488;SDS011;10906;45.194;5.684;2022-11-14T20:24:49;5.80;;;3.33;;
21488;SDS011;10906;45.194;5.684;2022-11-14T20:27:33;4.13;;;3.10;;
21488;SDS011;10906;45.194;5.684;2022-11-14T20:30:23;7.47;;;4.00;;
21488;SDS011;10906;45.194;5.684;2022-11-14T20:33:11;5.22;;;3.42;;
21488;SDS011;10906;45.194;5.684;2022-11-14T20:37:31;7.15;;;3.70;;
21488;SDS011;10906;45.194;5.684;2022-11-14T20:40:43;8.15;;;3.75;;
21488;SDS011;10906;45.194;5.684;2022-11-14T20:43:38;4.70;;;3.38;;
